Αρχική σελίδα
METAR-TAF:

METAR-TAF

Αεροδρόμια :

Nalchik, Ρωσία

γεωγραφικό πλάτος: 43-30-46N, γεωγραφικό μήκος: 043-38-12E, υψόμετρο: 445 μ

Παρών καιρός

Η αναφορά έγινε 40 λεπτά πριν, στις 02:00 UTC
Άνεμος 4 kt από Δ/ΝΔ
Θερμοκρασία 20°C
Υγρασία 73%
Πίεση 1008 hPa
Ορατότητα 10 χλμ και άνω

METAR: URMN 230200Z 24002MPS 9999 NSC 20/15 Q1008 R24/////// NOSIG RMK QFE720

Χρόνος: 06:40 (02:40 UTC)

Πρόγνωση Καιρού

Η αναφορά έγινε 40 λεπτά πριν, στις 02:00 UTC
Η πρόγνωση ισχύει από τις 23 στις 03 UTC έως τις 23 στις 12 UTC
Άνεμος 6 kt από BA με ριπές μέχρι 16 kt
Ορατότητα 10 χλμ και άνω
Διάσπαρτα νέφη σε ύψος 3000 πόδια
Προσωρινά
από 23 στις 09 UTC έως τις 23 στις 12 UTC
Άνεμος 12 kt από Β με ριπές μέχρι 25 kt
Ορατότητα: 6000 μ
Αρκετά νέφη σε ύψος 2000 πόδια, Σωρειτομελανίτες.
καταιγίδα, Ασθενής βροχή,

TAF: URMN 230200Z 2303/2312 04003G08MPS 9999 SCT030 TEMPO 2309/2312 35006G13MPS 6000 -TSRA BKN020CB

Μετεωρολογικές αναφορές και προγνώσεις για περισσότερα από 4000 αεροδρόμια (δελτία METAR και TAF).

Οι διαθέσιμοι σταθμοί απεικονίζονται στο χάρτη με κίτρινες και κόκκινες κουκκίδες.

Μετακινήστε το ποντίκι πάνω από τις κουκκίδες για να δείτε το όνομα του σταθμού.

Στη συνέχεια, κάντε κλικ για να δείτε τις μετεωρολογικές αναφορές και τις προγνώσεις καιρού.

Για να αλλάξετε το χάρτη: κάντε κλικ στα πράσινα κουμπιά με τον μαύρο σταυρό για να ζουμάρετε, στο πράσινο κουμπί με την παύλα για να αφαιρέσετε το ζουμ ή στα πράσινα βέλη για να αντιπαραβάλλετε χάρτες.


METAR-TAF: